createdAt,value
2023-01-02T00:02:14.276Z,100995.59
2023-01-02T00:04:43.975Z,100996.56
2023-01-02T00:07:13.099Z,100986.16
2023-01-02T00:09:42.368Z,100970.28
2023-01-02T00:12:11.827Z,101002.03
2023-01-02T00:14:41.214Z,101000.88
2023-01-02T00:17:11.571Z,100970.91
2023-01-02T00:19:40.670Z,100997.13
2023-01-02T00:22:09.844Z,101011.06
2023-01-02T00:24:39.016Z,101003.66
2023-01-02T00:27:08.610Z,100997.38
2023-01-02T00:29:37.968Z,101007.28
2023-01-02T00:32:07.683Z,100972.34
2023-01-02T00:34:38.438Z,100982.94
2023-01-02T00:37:07.780Z,101018.00
2023-01-02T00:39:36.957Z,101017.38
2023-01-02T00:42:06.471Z,101021.84
2023-01-02T00:44:35.868Z,101016.38
2023-01-02T00:47:05.196Z,101016.50
2023-01-02T00:49:34.349Z,101018.78
2023-01-02T00:52:05.541Z,100698.78
2023-01-02T00:54:34.649Z,100997.47
2023-01-02T00:57:03.858Z,101015.53
2023-01-02T00:59:33.095Z,101020.84
2023-01-02T01:02:02.628Z,101012.59
2023-01-02T01:04:34.291Z,101026.91
2023-01-02T01:07:05.568Z,101019.81
2023-01-02T01:09:36.002Z,101029.97
2023-01-02T01:12:05.543Z,101039.16
2023-01-02T01:14:34.643Z,101013.47
2023-01-02T01:17:03.748Z,101033.81
2023-01-02T01:19:33.204Z,101030.16
2023-01-02T01:22:02.721Z,101028.50
2023-01-02T01:24:33.181Z,101021.41
2023-01-02T01:27:02.361Z,101013.41
2023-01-02T01:29:31.549Z,101033.97
2023-01-02T01:32:00.668Z,101032.84
2023-01-02T01:34:29.979Z,101015.91
2023-01-02T01:36:59.043Z,101016.69
2023-01-02T01:39:28.449Z,101027.31
2023-01-02T01:42:00.673Z,101027.44
2023-01-02T01:44:50.389Z,101015.81
2023-01-02T01:47:25.434Z,101024.09
2023-01-02T01:50:05.217Z,101033.91
2023-01-02T01:52:40.094Z,101003.44
2023-01-02T01:55:12.888Z,101038.63
2023-01-02T01:57:47.685Z,101032.28
2023-01-02T02:00:17.555Z,101017.69
2023-01-02T02:02:49.693Z,101033.03
2023-01-02T02:05:22.939Z,101028.56
2023-01-02T02:08:00.717Z,100970.28
2023-01-02T02:10:29.810Z,100985.19
2023-01-02T02:13:00.300Z,101042.63
2023-01-02T02:15:39.910Z,100975.03
2023-01-02T02:18:19.701Z,100983.00
2023-01-02T02:20:56.682Z,101045.38
2023-01-02T02:24:12.977Z,101043.09
2023-01-02T02:27:17.498Z,101029.22
2023-01-02T02:30:04.402Z,101048.22
2023-01-02T02:32:52.901Z,101053.00
2023-01-02T02:35:33.705Z,101010.56
2023-01-02T02:38:08.257Z,101045.19
2023-01-02T02:40:50.463Z,101062.97
2023-01-02T02:43:30.747Z,101079.25
2023-01-02T02:46:07.589Z,101044.25
2023-01-02T02:48:48.639Z,101029.97
2023-01-02T02:51:22.625Z,101080.25
2023-01-02T02:53:57.416Z,101092.16
2023-01-02T02:56:29.217Z,101089.56
2023-01-02T02:58:59.135Z,101056.34
2023-01-02T03:01:32.280Z,101080.91
2023-01-02T03:04:11.257Z,101077.25
2023-01-02T03:06:56.120Z,101083.03
2023-01-02T03:09:44.367Z,100987.19
2023-01-02T03:12:24.597Z,100971.81
2023-01-02T03:15:04.287Z,101071.59
2023-01-02T03:17:39.863Z,101075.81
2023-01-02T03:20:14.693Z,101080.06
2023-01-02T03:22:48.374Z,101093.28
2023-01-02T03:25:20.832Z,101098.09
2023-01-02T03:27:52.352Z,101059.66
2023-01-02T03:30:23.987Z,101107.19
2023-01-02T03:32:58.320Z,101102.25
2023-01-02T03:35:34.059Z,101091.44
2023-01-02T03:38:07.037Z,101102.06
2023-01-02T03:40:41.673Z,101104.06
2023-01-02T03:43:15.714Z,101109.81
2023-01-02T03:45:49.964Z,101019.22
2023-01-02T03:48:29.148Z,101063.75
2023-01-02T03:51:03.144Z,101101.53
2023-01-02T03:53:35.543Z,101087.44
2023-01-02T03:56:17.652Z,101084.22
2023-01-02T03:58:52.298Z,101117.81
2023-01-02T04:01:33.981Z,101066.53
2023-01-02T04:04:11.869Z,101093.34
2023-01-02T04:06:49.467Z,101106.38
2023-01-02T04:09:22.699Z,101127.41
2023-01-02T04:11:56.947Z,100934.75
2023-01-02T04:14:32.165Z,101114.59
2023-01-02T04:17:04.746Z,101109.16
2023-01-02T04:19:36.878Z,101145.13
2023-01-02T04:22:11.691Z,101116.97
2023-01-02T04:24:47.740Z,101155.38
2023-01-02T04:27:22.335Z,101129.63
2023-01-02T04:29:51.756Z,101138.16
2023-01-02T04:32:24.717Z,101026.94
2023-01-02T04:34:55.730Z,101092.75
2023-01-02T04:37:31.743Z,101151.50
2023-01-02T04:40:05.470Z,101155.81
2023-01-02T04:42:34.841Z,101145.16
2023-01-02T04:45:04.037Z,101173.13
2023-01-02T04:47:36.242Z,101164.53
2023-01-02T04:50:05.911Z,101138.66
2023-01-02T04:52:37.305Z,101179.84
2023-01-02T04:55:08.506Z,101086.28
2023-01-02T04:57:38.033Z,101193.66
2023-01-02T05:00:09.553Z,101184.81
2023-01-02T05:02:40.405Z,101198.78
2023-01-02T05:05:10.897Z,101207.38
2023-01-02T05:07:41.435Z,101203.94
2023-01-02T05:10:11.095Z,100958.69
2023-01-02T05:12:40.591Z,101205.34
2023-01-02T05:15:11.655Z,101213.19
2023-01-02T05:17:41.948Z,101205.59
2023-01-02T05:20:13.505Z,101214.16
2023-01-02T05:23:05.260Z,101157.22
2023-01-02T05:25:35.877Z,101206.72
2023-01-02T05:28:05.473Z,101213.97
2023-01-02T05:30:37.846Z,101237.00
2023-01-02T05:33:07.052Z,101226.91
2023-01-02T05:35:36.512Z,101214.88
2023-01-02T05:38:06.989Z,101235.19
2023-01-02T05:40:36.132Z,101224.31
2023-01-02T05:43:05.274Z,101195.66
2023-01-02T05:45:34.797Z,101235.84
2023-01-02T05:48:04.041Z,101238.09
2023-01-02T05:50:33.630Z,101231.47
2023-01-02T05:53:03.072Z,101230.78
2023-01-02T05:55:44.510Z,101225.72
2023-01-02T05:58:18.198Z,101225.81
2023-01-02T06:00:47.192Z,101214.88
2023-01-02T06:03:16.437Z,101230.22
2023-01-02T06:05:45.598Z,101236.25
2023-01-02T06:08:14.729Z,101239.03
2023-01-02T06:10:52.119Z,101234.13
2023-01-02T06:13:21.357Z,101235.22
2023-01-02T06:15:50.621Z,101226.44
2023-01-02T06:18:19.967Z,101236.47
2023-01-02T06:20:49.027Z,101215.88
2023-01-02T06:23:18.270Z,101217.00
2023-01-02T06:25:47.563Z,101243.84
2023-01-02T06:28:18.102Z,101237.94
2023-01-02T06:30:47.479Z,101247.13
2023-01-02T06:33:16.573Z,101225.47
2023-01-02T06:35:46.186Z,101263.31
2023-01-02T06:38:15.588Z,101257.31
2023-01-02T06:40:54.275Z,101263.63
2023-01-02T06:43:25.560Z,101270.84
2023-01-02T06:45:55.064Z,101265.81
2023-01-02T06:48:24.087Z,101269.69
2023-01-02T06:50:53.342Z,101271.13
2023-01-02T06:53:22.742Z,101276.84
2023-01-02T06:55:54.975Z,101263.81
2023-01-02T06:58:26.534Z,101279.03
2023-01-02T07:00:55.991Z,101281.47
2023-01-02T07:03:25.218Z,101240.22
2023-01-02T07:05:54.596Z,101240.88
2023-01-02T07:08:23.985Z,101283.53
2023-01-02T07:10:53.344Z,101272.06
2023-01-02T07:13:22.780Z,101253.63
2023-01-02T07:15:53.305Z,101283.31
2023-01-02T07:18:22.538Z,101285.88
2023-01-02T07:20:55.324Z,101204.50
2023-01-02T07:23:24.618Z,101297.75
2023-01-02T07:25:55.640Z,101286.75
2023-01-02T07:28:25.431Z,101299.44
2023-01-02T07:30:58.514Z,101302.03
2023-01-02T07:33:29.859Z,101236.50
2023-01-02T07:35:59.677Z,101312.97
2023-01-02T07:38:29.351Z,101318.31
2023-01-02T07:40:58.877Z,101283.75
2023-01-02T07:43:28.399Z,101301.25
2023-01-02T07:46:05.037Z,101313.94
2023-01-02T07:48:34.429Z,101310.78
2023-01-02T07:51:04.432Z,101316.69
2023-01-02T07:53:34.027Z,101288.75
2023-01-02T07:56:04.450Z,101295.47
2023-01-02T07:58:34.058Z,101270.56
2023-01-02T08:01:08.964Z,101241.66
2023-01-02T08:03:38.817Z,101269.16
2023-01-02T08:06:09.895Z,101276.13
2023-01-02T08:08:39.230Z,101333.25
2023-01-02T08:11:09.582Z,101324.09
2023-01-02T08:13:39.877Z,101328.03
2023-01-02T08:16:13.639Z,101314.41
2023-01-02T08:18:43.343Z,101320.88
2023-01-02T08:21:12.950Z,101312.50
2023-01-02T08:23:43.488Z,101333.72
2023-01-02T08:26:13.344Z,101337.91
2023-01-02T08:28:43.371Z,101337.34
2023-01-02T08:31:15.823Z,101334.31
2023-01-02T08:33:44.903Z,101339.03
2023-01-02T08:36:19.245Z,101334.25
2023-01-02T08:38:51.380Z,101313.38
2023-01-02T08:41:32.343Z,101323.06
2023-01-02T08:44:02.081Z,101284.59
2023-01-02T08:46:40.140Z,101326.28
2023-01-02T08:49:12.436Z,101309.97
2023-01-02T08:51:42.016Z,101304.53
2023-01-02T08:54:11.518Z,101315.50
2023-01-02T08:56:41.554Z,101301.47
2023-01-02T08:59:15.621Z,101275.38
2023-01-02T09:01:46.368Z,101306.81
2023-01-02T09:04:15.551Z,101319.66
2023-01-02T09:06:45.358Z,101301.50
2023-01-02T09:09:18.427Z,101280.47
2023-01-02T09:11:50.807Z,101302.66
2023-01-02T09:14:22.132Z,101322.56
2023-01-02T09:16:53.666Z,101320.78
2023-01-02T09:19:22.765Z,101320.50
2023-01-02T09:21:52.325Z,101293.34
2023-01-02T09:24:22.772Z,101306.50
2023-01-02T09:26:52.171Z,101306.13
2023-01-02T09:29:21.895Z,101291.25
2023-01-02T09:31:52.830Z,101260.19
2023-01-02T09:34:22.132Z,101314.44
2023-01-02T09:36:51.350Z,101306.63
2023-01-02T09:39:20.677Z,101303.81
2023-01-02T09:41:53.368Z,101307.56
2023-01-02T09:44:27.912Z,101315.16
2023-01-02T09:47:02.407Z,101299.13
2023-01-02T09:49:34.351Z,101304.88
2023-01-02T09:52:06.533Z,101302.16
2023-01-02T09:54:35.796Z,101269.00
2023-01-02T09:57:20.780Z,101281.13
2023-01-02T09:59:57.593Z,101315.56
2023-01-02T10:02:40.933Z,101274.84
2023-01-02T10:05:27.365Z,101312.28
2023-01-02T10:08:03.081Z,101320.50
2023-01-02T10:10:38.410Z,101315.81
2023-01-02T10:13:18.299Z,101308.34
2023-01-02T10:15:50.498Z,101311.13
2023-01-02T10:18:25.944Z,101311.97
2023-01-02T10:20:59.448Z,101264.66
2023-01-02T10:23:34.812Z,101311.13
2023-01-02T10:26:07.177Z,101259.06
2023-01-02T10:28:45.410Z,101293.63
2023-01-02T10:31:21.240Z,101282.66
2023-01-02T10:33:56.900Z,101290.34
2023-01-02T10:36:28.569Z,101261.41
2023-01-02T10:39:00.953Z,101304.06
2023-01-02T10:41:32.280Z,101289.47
2023-01-02T10:44:04.169Z,101273.59
2023-01-02T10:46:36.891Z,101274.09
2023-01-02T10:49:10.266Z,101104.78
2023-01-02T10:51:43.347Z,101282.91
2023-01-02T10:54:12.923Z,101286.84
2023-01-02T10:56:42.632Z,101244.63
2023-01-02T10:59:22.031Z,101264.81
2023-01-02T11:01:53.423Z,101260.97
2023-01-02T11:04:26.113Z,101293.03
2023-01-02T11:07:01.284Z,101288.59
2023-01-02T11:09:32.136Z,101285.91
2023-01-02T11:12:10.703Z,101224.75
2023-01-02T11:14:40.669Z,101238.97
2023-01-02T11:17:14.809Z,101274.59
2023-01-02T11:19:47.897Z,101287.56
2023-01-02T11:22:20.217Z,101287.72
2023-01-02T11:25:00.455Z,101264.53
2023-01-02T11:27:32.832Z,101278.84
2023-01-02T11:30:03.104Z,101281.09
2023-01-02T11:32:39.769Z,101284.78
2023-01-02T11:35:35.430Z,101260.19
2023-01-02T11:38:04.607Z,101269.22
2023-01-02T11:40:34.149Z,101252.28
2023-01-02T11:43:26.240Z,101285.78
2023-01-02T11:45:56.260Z,101240.97
2023-01-02T11:48:26.330Z,101267.06
2023-01-02T11:50:58.180Z,101261.69
2023-01-02T11:53:34.368Z,101217.41
2023-01-02T11:56:10.137Z,101236.69
2023-01-02T11:58:49.635Z,101240.41
2023-01-02T12:01:23.548Z,101202.50
2023-01-02T12:03:52.950Z,101227.47
2023-01-02T12:06:26.941Z,101233.56
2023-01-02T12:09:06.545Z,101239.06
2023-01-02T12:11:46.367Z,101236.91
2023-01-02T12:14:18.154Z,101238.72
2023-01-02T12:16:57.983Z,101244.13
2023-01-02T12:19:45.027Z,101236.97
2023-01-02T12:22:39.379Z,101227.66
2023-01-02T12:25:36.534Z,101202.53
2023-01-02T12:28:17.133Z,101226.75
2023-01-02T12:30:51.927Z,101238.88
2023-01-02T12:33:37.715Z,101222.06
2023-01-02T12:36:23.957Z,101243.44
2023-01-02T12:39:18.227Z,101167.31
2023-01-02T12:42:01.912Z,101239.84
2023-01-02T12:44:47.306Z,101224.75
2023-01-02T12:47:30.453Z,101239.22
2023-01-02T12:50:49.013Z,101242.53
2023-01-02T12:53:38.000Z,101247.38
2023-01-02T12:56:14.149Z,101251.06
2023-01-02T12:59:01.265Z,101255.09
2023-01-02T13:01:38.325Z,101226.09
2023-01-02T13:04:16.533Z,101252.00
2023-01-02T13:06:52.179Z,101258.44
2023-01-02T13:09:28.857Z,101240.81
2023-01-02T13:12:06.572Z,101248.66
2023-01-02T13:14:41.127Z,101251.47
2023-01-02T13:17:33.951Z,101265.88
2023-01-02T13:20:08.273Z,101244.63
2023-01-02T13:22:48.874Z,101250.47
2023-01-02T13:25:21.908Z,101252.59
2023-01-02T13:27:53.991Z,101213.06
2023-01-02T13:31:05.436Z,101231.91
2023-01-02T13:33:42.175Z,101174.88
2023-01-02T13:36:23.826Z,101230.31
2023-01-02T13:38:56.076Z,101216.41
2023-01-02T13:41:26.756Z,101235.97
2023-01-02T13:44:00.203Z,101197.09
2023-01-02T13:47:01.980Z,101235.84
2023-01-02T13:49:22.498Z,101230.22
2023-01-02T13:52:00.401Z,101214.22
2023-01-02T13:54:37.383Z,101239.53
2023-01-02T13:57:32.550Z,101233.69
2023-01-02T14:00:05.945Z,101120.78
2023-01-02T14:02:41.602Z,101228.63
2023-01-02T14:05:48.197Z,101229.47
2023-01-02T14:08:25.441Z,101214.97
2023-01-02T14:10:57.909Z,101235.06
2023-01-02T14:13:36.760Z,101188.28
2023-01-02T14:16:41.612Z,101192.69
2023-01-02T14:19:24.805Z,100937.03
2023-01-02T14:22:04.069Z,101232.13
2023-01-02T14:24:37.288Z,101199.66
2023-01-02T14:27:08.343Z,101239.63
2023-01-02T14:29:48.984Z,101240.94
2023-01-02T14:32:25.446Z,101238.56
2023-01-02T14:34:58.676Z,101192.63
2023-01-02T14:37:34.272Z,101231.75
2023-01-02T14:40:37.362Z,101227.44
2023-01-02T14:43:30.291Z,101224.69
2023-01-02T14:46:07.826Z,101213.34
2023-01-02T14:48:45.366Z,101228.19
2023-01-02T14:52:43.057Z,101167.59
2023-01-02T14:54:47.022Z,101223.84
2023-01-02T14:57:28.096Z,101218.91
2023-01-02T14:59:59.493Z,101228.75
2023-01-02T15:02:35.843Z,101229.72
2023-01-02T15:05:10.204Z,101228.97
2023-01-02T15:07:43.545Z,101226.38
2023-01-02T15:10:15.979Z,101164.34
2023-01-02T15:13:04.249Z,101181.59
2023-01-02T15:15:39.748Z,101213.44
2023-01-02T15:18:18.216Z,101207.47
2023-01-02T15:20:50.648Z,101197.69
2023-01-02T15:23:23.745Z,101196.00
2023-01-02T15:26:33.262Z,101214.78
2023-01-02T15:28:44.191Z,101170.97
2023-01-02T15:31:15.597Z,101184.56
2023-01-02T15:33:52.204Z,101160.16
2023-01-02T15:36:36.040Z,101123.97
2023-01-02T15:39:17.202Z,101206.06
2023-01-02T15:41:49.345Z,101110.19
2023-01-02T15:44:40.911Z,101159.78
2023-01-02T15:47:14.089Z,101173.03
2023-01-02T15:49:46.060Z,101191.38
2023-01-02T15:52:21.758Z,101150.38
2023-01-02T15:54:54.721Z,101196.97
2023-01-02T15:57:27.893Z,101185.66
2023-01-02T15:59:57.331Z,101182.25
2023-01-02T16:02:35.671Z,101183.31
2023-01-02T16:05:14.143Z,101176.25
2023-01-02T16:07:49.677Z,101147.34
2023-01-02T16:10:23.460Z,101191.19
2023-01-02T16:12:55.347Z,101135.28
2023-01-02T16:15:29.670Z,101187.53
2023-01-02T16:17:59.379Z,101168.97
2023-01-02T16:20:30.408Z,101187.47
2023-01-02T16:23:04.278Z,101197.41
2023-01-02T16:25:36.994Z,101187.25
2023-01-02T16:28:35.354Z,101169.72
2023-01-02T16:31:09.687Z,101188.66
2023-01-02T16:33:40.339Z,101180.19
2023-01-02T16:36:12.700Z,101179.34
2023-01-02T16:38:53.019Z,101161.94
2023-01-02T16:42:13.991Z,101124.41
2023-01-02T16:44:43.349Z,101175.31
2023-01-02T16:47:12.926Z,101167.38
2023-01-02T16:49:42.370Z,101169.47
2023-01-02T16:52:11.535Z,101168.22
2023-01-02T16:54:40.733Z,101129.00
2023-01-02T16:57:30.785Z,100908.50
2023-01-02T17:00:00.442Z,101166.69
2023-01-02T17:02:29.910Z,101130.34
2023-01-02T17:04:59.189Z,101147.06
2023-01-02T17:07:28.748Z,101153.56
2023-01-02T17:09:58.022Z,101128.28
2023-01-02T17:12:27.319Z,101161.13
2023-01-02T17:14:58.032Z,101154.56
2023-01-02T17:17:27.427Z,101132.56
2023-01-02T17:19:56.759Z,101061.28
2023-01-02T17:22:26.365Z,101145.66
2023-01-02T17:24:56.531Z,101144.25
2023-01-02T17:27:25.870Z,101115.13
2023-01-02T17:29:55.289Z,101141.41
2023-01-02T17:32:25.987Z,101138.09
2023-01-02T17:35:33.799Z,101138.34
2023-01-02T17:38:18.713Z,101065.28
2023-01-02T17:40:49.487Z,101114.47
2023-01-02T17:43:21.063Z,101132.84
2023-01-02T17:45:50.533Z,101113.28
2023-01-02T17:48:24.604Z,101065.28
2023-01-02T17:50:55.154Z,101106.69
2023-01-02T17:53:24.329Z,101107.34
2023-01-02T17:56:20.525Z,101108.06
2023-01-02T17:58:45.473Z,101071.16
2023-01-02T18:01:16.491Z,101110.22
2023-01-02T18:03:48.194Z,101085.72
2023-01-02T18:06:18.453Z,101083.56
2023-01-02T18:08:47.873Z,101080.63
2023-01-02T18:11:18.533Z,101078.28
2023-01-02T18:13:49.763Z,101115.44
2023-01-02T18:16:22.319Z,101128.19
2023-01-02T18:18:53.659Z,101110.16
2023-01-02T18:21:25.810Z,101121.28
2023-01-02T18:24:00.456Z,101138.34
2023-01-02T18:26:31.863Z,101131.78
2023-01-02T18:29:09.720Z,101131.97
2023-01-02T18:31:41.541Z,101058.91
2023-01-02T18:34:46.374Z,101120.91
2023-01-02T18:37:22.236Z,101067.47
2023-01-02T18:39:52.248Z,101115.03
2023-01-02T18:42:23.428Z,101101.84
2023-01-02T18:44:53.708Z,101095.84
2023-01-02T18:47:30.241Z,101091.72
2023-01-02T18:50:24.083Z,101051.22
2023-01-02T18:52:54.069Z,101086.44
2023-01-02T18:55:26.210Z,101067.25
2023-01-02T18:57:59.793Z,101108.50
2023-01-02T19:00:50.289Z,101107.88
2023-01-02T19:03:26.245Z,100933.56
2023-01-02T19:05:59.027Z,100998.84
2023-01-02T19:08:36.796Z,100997.41
2023-01-02T19:11:32.086Z,101044.47
2023-01-02T19:14:17.177Z,100760.13
2023-01-02T19:16:51.597Z,100961.03
2023-01-02T19:19:28.076Z,101095.69
2023-01-02T19:22:04.091Z,101082.03
2023-01-02T19:24:39.602Z,100936.47
2023-01-02T19:27:27.463Z,100725.75
2023-01-02T19:30:01.495Z,100728.97
2023-01-02T19:32:35.832Z,101026.28
2023-01-02T19:35:38.426Z,101008.13
2023-01-02T19:38:23.696Z,101066.03
2023-01-02T19:40:53.507Z,101067.75
2023-01-02T19:43:23.675Z,101026.94
2023-01-02T19:45:54.522Z,101076.34
2023-01-02T19:48:24.015Z,100992.53
2023-01-02T19:50:53.393Z,101061.13
2023-01-02T19:53:23.859Z,101050.44
2023-01-02T19:55:53.178Z,101051.97
2023-01-02T19:58:23.514Z,101062.66
2023-01-02T20:00:53.962Z,101062.81
2023-01-02T20:03:23.761Z,101044.25
2023-01-02T20:05:53.070Z,101063.97
2023-01-02T20:08:24.045Z,101023.03
2023-01-02T20:10:53.479Z,101051.59
2023-01-02T20:13:23.264Z,101048.91
2023-01-02T20:15:53.017Z,101046.47
2023-01-02T20:18:22.505Z,101050.03
2023-01-02T20:20:51.935Z,101011.38
2023-01-02T20:23:21.341Z,101028.75
2023-01-02T20:25:51.951Z,100950.81
2023-01-02T20:28:21.782Z,100959.56
2023-01-02T20:30:51.593Z,100972.44
2023-01-02T20:33:20.895Z,101029.06
2023-01-02T20:35:50.339Z,101027.81
2023-01-02T20:38:19.862Z,101025.00
2023-01-02T20:40:49.259Z,100992.66
2023-01-02T20:43:19.908Z,100992.88
2023-01-02T20:45:49.233Z,100997.84
2023-01-02T20:48:18.587Z,100980.94
2023-01-02T20:50:48.712Z,101027.72
2023-01-02T20:53:18.131Z,100943.84
2023-01-02T20:55:47.859Z,100973.13
2023-01-02T20:58:17.684Z,101032.91
2023-01-02T21:00:49.388Z,101010.91
2023-01-02T21:03:19.628Z,100986.59
2023-01-02T21:05:49.292Z,100988.78
2023-01-02T21:08:18.794Z,101005.97
2023-01-02T21:10:48.335Z,100996.00
2023-01-02T21:13:17.805Z,100992.00
2023-01-02T21:15:51.929Z,100983.75
2023-01-02T21:18:23.925Z,100984.53
2023-01-02T21:20:55.714Z,100890.47
2023-01-02T21:23:26.738Z,100978.66
2023-01-02T21:25:56.599Z,100981.03
2023-01-02T21:28:26.909Z,100979.94
2023-01-02T21:30:58.126Z,100963.44
2023-01-02T21:33:31.078Z,100972.78
2023-01-02T21:36:02.704Z,100964.16
2023-01-02T21:38:32.213Z,100971.56
2023-01-02T21:41:21.749Z,100962.66
2023-01-02T21:43:51.451Z,100950.75
2023-01-02T21:46:22.193Z,100914.59
2023-01-02T21:48:51.769Z,100950.13
2023-01-02T21:51:21.650Z,100909.88
2023-01-02T21:53:51.262Z,100942.88
2023-01-02T21:56:20.487Z,100950.34
2023-01-02T21:58:49.728Z,100933.59
2023-01-02T22:01:19.146Z,100838.91
2023-01-02T22:03:49.953Z,100937.78
2023-01-02T22:06:19.533Z,100940.59
2023-01-02T22:08:48.825Z,100934.50
2023-01-02T22:11:35.579Z,100926.47
2023-01-02T22:14:06.874Z,100911.34
2023-01-02T22:16:36.919Z,100929.34
2023-01-02T22:19:07.707Z,100926.63
2023-01-02T22:21:37.110Z,100913.63
2023-01-02T22:24:07.126Z,100939.13
2023-01-02T22:26:36.749Z,100934.13
2023-01-02T22:29:06.566Z,100944.72
2023-01-02T22:31:36.594Z,100938.31
2023-01-02T22:34:08.136Z,100947.41
2023-01-02T22:36:37.620Z,100940.47
2023-01-02T22:39:27.974Z,100946.38
2023-01-02T22:42:48.939Z,100891.72
2023-01-02T22:45:05.503Z,100928.41
2023-01-02T22:47:38.440Z,100946.47
2023-01-02T22:50:12.312Z,100939.00
2023-01-02T22:52:42.084Z,100931.06
2023-01-02T22:55:17.529Z,100885.22
2023-01-02T22:57:51.529Z,100932.50
2023-01-02T23:00:23.483Z,100912.97
2023-01-02T23:02:52.958Z,100928.47
2023-01-02T23:05:23.888Z,100926.94
2023-01-02T23:07:53.277Z,100926.53
2023-01-02T23:10:22.818Z,100875.28
2023-01-02T23:12:52.249Z,100830.13
2023-01-02T23:15:21.871Z,100924.63
2023-01-02T23:18:08.817Z,100909.28
2023-01-02T23:20:39.578Z,100886.97
2023-01-02T23:23:08.890Z,100905.16
2023-01-02T23:25:41.718Z,100905.34
2023-01-02T23:28:16.592Z,100908.75
2023-01-02T23:30:55.059Z,100896.00
2023-01-02T23:33:24.816Z,100899.09
2023-01-02T23:35:55.629Z,100882.00
2023-01-02T23:38:25.130Z,100888.91
2023-01-02T23:40:54.120Z,100885.09
2023-01-02T23:43:23.544Z,100881.00
2023-01-02T23:45:53.199Z,100881.00
2023-01-02T23:48:22.950Z,100876.94
2023-01-02T23:50:59.471Z,100845.84
2023-01-02T23:53:33.937Z,100864.25
2023-01-02T23:56:03.392Z,100866.00
2023-01-02T23:58:34.640Z,100849.69
